sensor_id;sensor_type;location;lat;lon;timestamp;P1;durP1;ratioP1;P2;durP2;ratioP2
58528;SDS011;44322;52.968;5.816;2023-03-01T00:25:53;16.52;;;9.82;;
58528;SDS011;44322;52.968;5.816;2023-03-01T00:28:19;19.80;;;13.23;;
58528;SDS011;44322;52.968;5.816;2023-03-01T00:30:45;19.02;;;12.18;;
58528;SDS011;44322;52.968;5.816;2023-03-01T00:33:10;17.00;;;11.93;;
58528;SDS011;44322;52.968;5.816;2023-03-01T00:35:36;16.88;;;11.73;;
58528;SDS011;44322;52.968;5.816;2023-03-01T00:38:02;21.38;;;13.10;;
58528;SDS011;44322;52.968;5.816;2023-03-01T00:40:29;28.75;;;11.85;;
58528;SDS011;44322;52.968;5.816;2023-03-01T00:42:57;18.73;;;11.13;;
58528;SDS011;44322;52.968;5.816;2023-03-01T00:45:22;19.20;;;12.30;;
58528;SDS011;44322;52.968;5.816;2023-03-01T00:47:49;20.45;;;11.07;;
58528;SDS011;44322;52.968;5.816;2023-03-01T00:50:15;15.77;;;10.38;;
58528;SDS011;44322;52.968;5.816;2023-03-01T00:52:41;17.65;;;12.38;;
58528;SDS011;44322;52.968;5.816;2023-03-01T00:55:07;16.40;;;12.07;;
58528;SDS011;44322;52.968;5.816;2023-03-01T00:57:33;16.10;;;11.48;;
58528;SDS011;44322;52.968;5.816;2023-03-01T00:59:59;18.30;;;12.00;;
58528;SDS011;44322;52.968;5.816;2023-03-01T01:02:24;17.40;;;11.82;;
58528;SDS011;44322;52.968;5.816;2023-03-01T01:04:50;18.55;;;12.15;;
58528;SDS011;44322;52.968;5.816;2023-03-01T01:07:16;14.45;;;11.07;;
58528;SDS011;44322;52.968;5.816;2023-03-01T01:09:42;15.68;;;10.80;;
58528;SDS011;44322;52.968;5.816;2023-03-01T01:12:08;13.90;;;9.20;;
58528;SDS011;44322;52.968;5.816;2023-03-01T01:14:34;14.52;;;10.70;;
58528;SDS011;44322;52.968;5.816;2023-03-01T01:17:00;13.27;;;9.57;;
58528;SDS011;44322;52.968;5.816;2023-03-01T01:19:26;13.40;;;9.48;;
58528;SDS011;44322;52.968;5.816;2023-03-01T01:21:51;13.65;;;9.90;;
58528;SDS011;44322;52.968;5.816;2023-03-01T01:24:18;15.40;;;10.30;;
58528;SDS011;44322;52.968;5.816;2023-03-01T01:26:44;13.23;;;10.25;;
58528;SDS011;44322;52.968;5.816;2023-03-01T01:29:10;13.07;;;8.77;;
58528;SDS011;44322;52.968;5.816;2023-03-01T01:31:36;14.05;;;9.35;;
58528;SDS011;44322;52.968;5.816;2023-03-01T01:34:04;10.02;;;8.85;;
58528;SDS011;44322;52.968;5.816;2023-03-01T01:36:32;11.25;;;8.25;;
58528;SDS011;44322;52.968;5.816;2023-03-01T01:38:58;11.52;;;8.63;;
58528;SDS011;44322;52.968;5.816;2023-03-01T01:41:26;9.27;;;8.27;;
58528;SDS011;44322;52.968;5.816;2023-03-01T01:44:11;10.23;;;8.35;;
58528;SDS011;44322;52.968;5.816;2023-03-01T01:46:42;8.88;;;7.80;;
58528;SDS011;44322;52.968;5.816;2023-03-01T01:49:17;9.02;;;8.13;;
58528;SDS011;44322;52.968;5.816;2023-03-01T01:51:48;9.48;;;8.18;;
58528;SDS011;44322;52.968;5.816;2023-03-01T01:54:19;10.25;;;8.70;;
58528;SDS011;44322;52.968;5.816;2023-03-01T01:56:52;9.95;;;8.15;;
58528;SDS011;44322;52.968;5.816;2023-03-01T01:59:21;9.25;;;8.02;;
58528;SDS011;44322;52.968;5.816;2023-03-01T02:04:15;9.85;;;8.23;;
58528;SDS011;44322;52.968;5.816;2023-03-01T02:06:46;10.25;;;7.97;;
58528;SDS011;44322;52.968;5.816;2023-03-01T02:09:33;12.80;;;8.07;;
58528;SDS011;44322;52.968;5.816;2023-03-01T02:12:00;9.35;;;8.15;;
58528;SDS011;44322;52.968;5.816;2023-03-01T02:14:26;13.90;;;7.80;;
58528;SDS011;44322;52.968;5.816;2023-03-01T02:16:52;13.13;;;8.32;;
58528;SDS011;44322;52.968;5.816;2023-03-01T02:19:22;8.93;;;7.47;;
58528;SDS011;44322;52.968;5.816;2023-03-01T02:22:24;8.65;;;7.75;;
58528;SDS011;44322;52.968;5.816;2023-03-01T02:27:37;9.38;;;8.07;;
58528;SDS011;44322;52.968;5.816;2023-03-01T02:30:07;12.07;;;8.25;;
58528;SDS011;44322;52.968;5.816;2023-03-01T02:32:33;11.88;;;7.75;;
58528;SDS011;44322;52.968;5.816;2023-03-01T02:34:59;11.15;;;8.18;;
58528;SDS011;44322;52.968;5.816;2023-03-01T02:37:25;9.20;;;8.30;;
58528;SDS011;44322;52.968;5.816;2023-03-01T02:39:58;14.10;;;8.57;;
58528;SDS011;44322;52.968;5.816;2023-03-01T02:42:30;11.45;;;7.57;;
58528;SDS011;44322;52.968;5.816;2023-03-01T02:44:57;9.80;;;7.97;;
58528;SDS011;44322;52.968;5.816;2023-03-01T02:47:23;12.57;;;7.40;;
58528;SDS011;44322;52.968;5.816;2023-03-01T02:49:48;10.40;;;8.10;;
58528;SDS011;44322;52.968;5.816;2023-03-01T02:54:58;11.27;;;8.32;;
58528;SDS011;44322;52.968;5.816;2023-03-01T02:57:31;7.95;;;6.00;;
58528;SDS011;44322;52.968;5.816;2023-03-01T02:59:59;10.82;;;7.22;;
58528;SDS011;44322;52.968;5.816;2023-03-01T03:02:32;14.23;;;7.90;;
58528;SDS011;44322;52.968;5.816;2023-03-01T03:05:06;9.52;;;8.25;;
58528;SDS011;44322;52.968;5.816;2023-03-01T03:07:47;14.88;;;9.20;;
58528;SDS011;44322;52.968;5.816;2023-03-01T03:10:15;10.05;;;8.50;;
58528;SDS011;44322;52.968;5.816;2023-03-01T03:12:48;10.43;;;8.18;;
58528;SDS011;44322;52.968;5.816;2023-03-01T03:15:15;16.40;;;8.30;;
58528;SDS011;44322;52.968;5.816;2023-03-01T03:17:41;12.63;;;8.15;;
58528;SDS011;44322;52.968;5.816;2023-03-01T03:20:08;17.63;;;8.43;;
58528;SDS011;44322;52.968;5.816;2023-03-01T03:22:38;14.93;;;8.68;;
58528;SDS011;44322;52.968;5.816;2023-03-01T03:25:05;16.02;;;9.10;;
58528;SDS011;44322;52.968;5.816;2023-03-01T03:27:36;17.85;;;8.32;;
58528;SDS011;44322;52.968;5.816;2023-03-01T03:30:03;23.88;;;9.73;;
58528;SDS011;44322;52.968;5.816;2023-03-01T03:32:36;49.05;;;10.15;;
58528;SDS011;44322;52.968;5.816;2023-03-01T03:35:06;40.60;;;10.00;;
58528;SDS011;44322;52.968;5.816;2023-03-01T03:37:38;43.28;;;10.05;;
58528;SDS011;44322;52.968;5.816;2023-03-01T03:40:24;30.63;;;9.80;;
58528;SDS011;44322;52.968;5.816;2023-03-01T03:42:50;29.08;;;8.63;;
58528;SDS011;44322;52.968;5.816;2023-03-01T03:45:16;32.85;;;10.18;;
58528;SDS011;44322;52.968;5.816;2023-03-01T03:47:42;28.90;;;9.18;;
58528;SDS011;44322;52.968;5.816;2023-03-01T03:50:08;26.30;;;10.30;;
58528;SDS011;44322;52.968;5.816;2023-03-01T03:52:35;41.72;;;9.50;;
58528;SDS011;44322;52.968;5.816;2023-03-01T03:55:00;17.98;;;8.68;;
58528;SDS011;44322;52.968;5.816;2023-03-01T03:57:26;24.27;;;9.68;;
58528;SDS011;44322;52.968;5.816;2023-03-01T03:59:51;27.35;;;10.00;;
58528;SDS011;44322;52.968;5.816;2023-03-01T04:02:17;33.70;;;10.05;;
58528;SDS011;44322;52.968;5.816;2023-03-01T04:04:50;36.83;;;9.52;;
58528;SDS011;44322;52.968;5.816;2023-03-01T04:07:16;16.15;;;9.00;;
58528;SDS011;44322;52.968;5.816;2023-03-01T04:09:42;22.95;;;10.68;;
58528;SDS011;44322;52.968;5.816;2023-03-01T04:12:08;21.40;;;10.38;;
58528;SDS011;44322;52.968;5.816;2023-03-01T04:14:34;29.42;;;9.55;;
58528;SDS011;44322;52.968;5.816;2023-03-01T04:17:00;34.40;;;9.77;;
58528;SDS011;44322;52.968;5.816;2023-03-01T04:19:26;16.05;;;8.93;;
58528;SDS011;44322;52.968;5.816;2023-03-01T04:21:52;17.35;;;9.07;;
58528;SDS011;44322;52.968;5.816;2023-03-01T04:24:18;16.38;;;9.43;;
58528;SDS011;44322;52.968;5.816;2023-03-01T04:26:44;22.00;;;9.48;;
58528;SDS011;44322;52.968;5.816;2023-03-01T04:29:09;33.85;;;9.93;;
58528;SDS011;44322;52.968;5.816;2023-03-01T04:31:35;29.75;;;10.15;;
58528;SDS011;44322;52.968;5.816;2023-03-01T05:21:01;16.67;;;11.50;;
58528;SDS011;44322;52.968;5.816;2023-03-01T05:23:29;15.05;;;10.30;;
58528;SDS011;44322;52.968;5.816;2023-03-01T05:25:58;14.10;;;10.38;;
58528;SDS011;44322;52.968;5.816;2023-03-01T05:28:29;11.10;;;9.10;;
58528;SDS011;44322;52.968;5.816;2023-03-01T05:30:55;12.20;;;9.52;;
58528;SDS011;44322;52.968;5.816;2023-03-01T05:33:21;11.70;;;9.82;;
58528;SDS011;44322;52.968;5.816;2023-03-01T05:35:47;11.43;;;9.27;;
58528;SDS011;44322;52.968;5.816;2023-03-01T05:38:14;10.48;;;8.65;;
58528;SDS011;44322;52.968;5.816;2023-03-01T05:40:41;9.52;;;8.48;;
58528;SDS011;44322;52.968;5.816;2023-03-01T05:43:08;10.15;;;8.85;;
58528;SDS011;44322;52.968;5.816;2023-03-01T05:45:35;11.65;;;9.73;;
58528;SDS011;44322;52.968;5.816;2023-03-01T05:48:02;11.90;;;9.20;;
58528;SDS011;44322;52.968;5.816;2023-03-01T05:50:29;11.43;;;9.50;;
58528;SDS011;44322;52.968;5.816;2023-03-01T05:55:31;11.07;;;8.30;;
58528;SDS011;44322;52.968;5.816;2023-03-01T05:58:00;11.88;;;9.38;;
58528;SDS011;44322;52.968;5.816;2023-03-01T06:00:27;10.77;;;8.52;;
58528;SDS011;44322;52.968;5.816;2023-03-01T06:02:54;10.60;;;8.77;;
58528;SDS011;44322;52.968;5.816;2023-03-01T06:05:20;10.75;;;8.88;;
58528;SDS011;44322;52.968;5.816;2023-03-01T06:07:47;10.43;;;8.65;;
58528;SDS011;44322;52.968;5.816;2023-03-01T06:10:13;8.88;;;7.60;;
58528;SDS011;44322;52.968;5.816;2023-03-01T06:12:40;8.38;;;7.57;;
58528;SDS011;44322;52.968;5.816;2023-03-01T07:33:29;11.18;;;9.50;;
58528;SDS011;44322;52.968;5.816;2023-03-01T07:35:59;12.45;;;9.90;;
58528;SDS011;44322;52.968;5.816;2023-03-01T07:38:26;10.25;;;9.10;;
58528;SDS011;44322;52.968;5.816;2023-03-01T07:48:12;13.90;;;9.48;;
58528;SDS011;44322;52.968;5.816;2023-03-01T07:50:58;12.88;;;9.90;;
58528;SDS011;44322;52.968;5.816;2023-03-01T07:53:27;13.25;;;10.73;;
58528;SDS011;44322;52.968;5.816;2023-03-01T07:56:03;14.45;;;11.07;;
58528;SDS011;44322;52.968;5.816;2023-03-01T07:58:30;19.10;;;12.48;;
58528;SDS011;44322;52.968;5.816;2023-03-01T08:00:56;18.58;;;13.00;;
58528;SDS011;44322;52.968;5.816;2023-03-01T08:03:21;18.13;;;12.68;;
58528;SDS011;44322;52.968;5.816;2023-03-01T08:05:47;17.63;;;12.65;;
58528;SDS011;44322;52.968;5.816;2023-03-01T08:08:12;14.00;;;11.32;;
58528;SDS011;44322;52.968;5.816;2023-03-01T08:10:38;19.48;;;12.77;;
58528;SDS011;44322;52.968;5.816;2023-03-01T08:13:03;17.42;;;12.82;;
58528;SDS011;44322;52.968;5.816;2023-03-01T08:15:29;21.08;;;14.40;;
58528;SDS011;44322;52.968;5.816;2023-03-01T08:17:55;19.55;;;14.20;;
58528;SDS011;44322;52.968;5.816;2023-03-01T08:20:20;20.33;;;14.15;;
58528;SDS011;44322;52.968;5.816;2023-03-01T08:22:46;22.05;;;15.45;;
58528;SDS011;44322;52.968;5.816;2023-03-01T08:25:11;23.33;;;15.77;;
58528;SDS011;44322;52.968;5.816;2023-03-01T08:27:37;21.42;;;14.90;;
58528;SDS011;44322;52.968;5.816;2023-03-01T08:30:02;23.10;;;15.43;;
58528;SDS011;44322;52.968;5.816;2023-03-01T08:32:28;23.42;;;15.88;;
58528;SDS011;44322;52.968;5.816;2023-03-01T08:34:54;22.05;;;15.13;;
58528;SDS011;44322;52.968;5.816;2023-03-01T08:37:19;25.50;;;16.58;;
58528;SDS011;44322;52.968;5.816;2023-03-01T08:39:46;21.00;;;15.45;;
58528;SDS011;44322;52.968;5.816;2023-03-01T08:42:11;22.38;;;15.65;;
58528;SDS011;44322;52.968;5.816;2023-03-01T08:44:37;24.60;;;15.95;;
58528;SDS011;44322;52.968;5.816;2023-03-01T08:47:02;21.98;;;15.40;;
58528;SDS011;44322;52.968;5.816;2023-03-01T08:49:30;22.27;;;15.93;;
58528;SDS011;44322;52.968;5.816;2023-03-01T08:51:57;20.47;;;14.93;;
58528;SDS011;44322;52.968;5.816;2023-03-01T08:54:23;21.52;;;14.70;;
58528;SDS011;44322;52.968;5.816;2023-03-01T08:56:48;23.05;;;16.20;;
58528;SDS011;44322;52.968;5.816;2023-03-01T08:59:15;24.30;;;16.08;;
58528;SDS011;44322;52.968;5.816;2023-03-01T09:01:42;25.05;;;17.17;;
58528;SDS011;44322;52.968;5.816;2023-03-01T09:04:09;22.92;;;16.25;;
58528;SDS011;44322;52.968;5.816;2023-03-01T09:06:35;23.75;;;16.38;;
58528;SDS011;44322;52.968;5.816;2023-03-01T09:09:02;25.65;;;17.27;;
58528;SDS011;44322;52.968;5.816;2023-03-01T09:23:43;21.30;;;16.08;;
58528;SDS011;44322;52.968;5.816;2023-03-01T09:26:10;23.73;;;16.23;;
58528;SDS011;44322;52.968;5.816;2023-03-01T10:02:31;20.20;;;13.85;;
58528;SDS011;44322;52.968;5.816;2023-03-01T10:08:06;18.25;;;14.02;;
58528;SDS011;44322;52.968;5.816;2023-03-01T10:10:56;19.05;;;14.15;;
58528;SDS011;44322;52.968;5.816;2023-03-01T10:16:18;19.80;;;14.23;;
58528;SDS011;44322;52.968;5.816;2023-03-01T10:18:51;18.13;;;13.98;;
58528;SDS011;44322;52.968;5.816;2023-03-01T10:21:21;19.92;;;14.35;;
58528;SDS011;44322;52.968;5.816;2023-03-01T10:23:49;19.35;;;15.00;;
58528;SDS011;44322;52.968;5.816;2023-03-01T10:26:32;20.60;;;14.63;;
58528;SDS011;44322;52.968;5.816;2023-03-01T10:29:08;17.95;;;13.65;;
58528;SDS011;44322;52.968;5.816;2023-03-01T10:31:43;19.10;;;13.95;;
58528;SDS011;44322;52.968;5.816;2023-03-01T10:34:32;15.75;;;12.18;;
58528;SDS011;44322;52.968;5.816;2023-03-01T10:36:58;18.95;;;12.32;;
58528;SDS011;44322;52.968;5.816;2023-03-01T10:39:30;17.20;;;12.63;;
58528;SDS011;44322;52.968;5.816;2023-03-01T10:44:36;16.15;;;12.05;;
58528;SDS011;44322;52.968;5.816;2023-03-01T10:47:03;18.08;;;12.23;;
58528;SDS011;44322;52.968;5.816;2023-03-01T10:49:29;15.27;;;12.00;;
58528;SDS011;44322;52.968;5.816;2023-03-01T10:51:55;13.18;;;10.77;;
58528;SDS011;44322;52.968;5.816;2023-03-01T10:57:10;15.82;;;11.30;;
58528;SDS011;44322;52.968;5.816;2023-03-01T11:00:17;15.07;;;11.43;;
58528;SDS011;44322;52.968;5.816;2023-03-01T11:03:11;16.58;;;11.98;;
58528;SDS011;44322;52.968;5.816;2023-03-01T11:12:30;14.65;;;11.52;;
58528;SDS011;44322;52.968;5.816;2023-03-01T11:15:19;14.93;;;11.57;;
58528;SDS011;44322;52.968;5.816;2023-03-01T11:17:56;15.65;;;11.82;;
58528;SDS011;44322;52.968;5.816;2023-03-01T11:20:27;15.80;;;12.65;;
58528;SDS011;44322;52.968;5.816;2023-03-01T11:22:58;16.42;;;12.32;;
58528;SDS011;44322;52.968;5.816;2023-03-01T11:25:28;16.67;;;12.77;;
58528;SDS011;44322;52.968;5.816;2023-03-01T11:27:58;18.13;;;14.07;;
58528;SDS011;44322;52.968;5.816;2023-03-01T11:30:37;16.40;;;12.75;;
58528;SDS011;44322;52.968;5.816;2023-03-01T11:33:08;16.13;;;12.25;;
58528;SDS011;44322;52.968;5.816;2023-03-01T11:35:42;17.52;;;13.15;;
58528;SDS011;44322;52.968;5.816;2023-03-01T11:40:44;18.05;;;12.63;;
58528;SDS011;44322;52.968;5.816;2023-03-01T11:46:23;14.90;;;12.02;;
58528;SDS011;44322;52.968;5.816;2023-03-01T11:51:25;16.13;;;12.38;;
58528;SDS011;44322;52.968;5.816;2023-03-01T11:54:06;18.10;;;13.15;;
58528;SDS011;44322;52.968;5.816;2023-03-01T11:56:57;17.50;;;12.88;;
58528;SDS011;44322;52.968;5.816;2023-03-01T11:59:37;17.38;;;12.57;;
58528;SDS011;44322;52.968;5.816;2023-03-01T12:07:56;16.45;;;12.02;;
58528;SDS011;44322;52.968;5.816;2023-03-01T12:10:32;18.17;;;12.63;;
58528;SDS011;44322;52.968;5.816;2023-03-01T12:18:53;18.13;;;12.82;;
58528;SDS011;44322;52.968;5.816;2023-03-01T12:28:30;15.43;;;11.85;;
58528;SDS011;44322;52.968;5.816;2023-03-01T12:31:12;15.13;;;11.02;;
58528;SDS011;44322;52.968;5.816;2023-03-01T12:33:58;16.42;;;11.05;;
58528;SDS011;44322;52.968;5.816;2023-03-01T12:36:36;15.38;;;11.57;;
58528;SDS011;44322;52.968;5.816;2023-03-01T12:42:33;15.65;;;11.40;;
58528;SDS011;44322;52.968;5.816;2023-03-01T12:45:26;17.27;;;10.93;;
58528;SDS011;44322;52.968;5.816;2023-03-01T12:48:24;13.43;;;10.20;;
58528;SDS011;44322;52.968;5.816;2023-03-01T12:51:05;15.07;;;10.45;;
58528;SDS011;44322;52.968;5.816;2023-03-01T12:53:37;17.63;;;12.05;;
58528;SDS011;44322;52.968;5.816;2023-03-01T12:56:06;14.27;;;10.68;;
58528;SDS011;44322;52.968;5.816;2023-03-01T12:58:36;16.42;;;11.38;;
58528;SDS011;44322;52.968;5.816;2023-03-01T13:01:26;17.98;;;11.82;;
58528;SDS011;44322;52.968;5.816;2023-03-01T13:09:43;15.25;;;12.02;;
58528;SDS011;44322;52.968;5.816;2023-03-01T13:17:47;15.90;;;11.93;;
58528;SDS011;44322;52.968;5.816;2023-03-01T13:20:14;18.70;;;12.35;;
58528;SDS011;44322;52.968;5.816;2023-03-01T13:22:41;16.17;;;11.73;;
58528;SDS011;44322;52.968;5.816;2023-03-01T13:25:17;17.67;;;12.75;;
58528;SDS011;44322;52.968;5.816;2023-03-01T13:27:44;17.52;;;12.63;;
58528;SDS011;44322;52.968;5.816;2023-03-01T13:30:44;16.83;;;12.20;;
58528;SDS011;44322;52.968;5.816;2023-03-01T13:35:48;16.67;;;11.93;;
58528;SDS011;44322;52.968;5.816;2023-03-01T13:41:11;14.90;;;11.52;;
58528;SDS011;44322;52.968;5.816;2023-03-01T13:43:38;17.10;;;13.02;;
58528;SDS011;44322;52.968;5.816;2023-03-01T13:46:11;15.95;;;11.80;;
58528;SDS011;44322;52.968;5.816;2023-03-01T13:48:42;18.42;;;12.23;;
58528;SDS011;44322;52.968;5.816;2023-03-01T13:51:11;16.10;;;12.18;;
58528;SDS011;44322;52.968;5.816;2023-03-01T13:53:42;16.38;;;11.93;;
58528;SDS011;44322;52.968;5.816;2023-03-01T13:56:11;17.27;;;11.93;;
58528;SDS011;44322;52.968;5.816;2023-03-01T13:58:49;15.55;;;12.05;;
58528;SDS011;44322;52.968;5.816;2023-03-01T14:01:21;18.00;;;12.05;;
58528;SDS011;44322;52.968;5.816;2023-03-01T14:03:52;16.27;;;12.02;;
58528;SDS011;44322;52.968;5.816;2023-03-01T14:06:36;17.08;;;12.10;;
58528;SDS011;44322;52.968;5.816;2023-03-01T14:11:34;15.73;;;11.73;;
58528;SDS011;44322;52.968;5.816;2023-03-01T14:14:14;17.58;;;12.05;;
58528;SDS011;44322;52.968;5.816;2023-03-01T14:17:02;18.80;;;13.02;;
58528;SDS011;44322;52.968;5.816;2023-03-01T14:19:30;17.55;;;13.38;;
58528;SDS011;44322;52.968;5.816;2023-03-01T14:24:29;16.13;;;12.30;;
58528;SDS011;44322;52.968;5.816;2023-03-01T14:26:59;18.52;;;12.50;;
58528;SDS011;44322;52.968;5.816;2023-03-01T14:29:36;17.00;;;12.60;;
58528;SDS011;44322;52.968;5.816;2023-03-01T14:32:10;17.23;;;13.32;;
58528;SDS011;44322;52.968;5.816;2023-03-01T14:34:44;17.00;;;12.38;;
58528;SDS011;44322;52.968;5.816;2023-03-01T14:37:19;17.25;;;11.23;;
58528;SDS011;44322;52.968;5.816;2023-03-01T14:42:49;14.37;;;11.07;;
58528;SDS011;44322;52.968;5.816;2023-03-01T14:45:15;14.57;;;10.70;;
58528;SDS011;44322;52.968;5.816;2023-03-01T14:47:40;15.77;;;11.98;;
58528;SDS011;44322;52.968;5.816;2023-03-01T14:50:15;15.70;;;11.52;;
58528;SDS011;44322;52.968;5.816;2023-03-01T14:53:00;14.50;;;12.05;;
58528;SDS011;44322;52.968;5.816;2023-03-01T14:55:32;16.20;;;12.23;;
58528;SDS011;44322;52.968;5.816;2023-03-01T14:58:02;16.05;;;12.00;;
58528;SDS011;44322;52.968;5.816;2023-03-01T15:03:36;16.40;;;12.00;;
58528;SDS011;44322;52.968;5.816;2023-03-01T15:06:03;16.73;;;12.60;;
58528;SDS011;44322;52.968;5.816;2023-03-01T15:08:31;17.52;;;12.45;;
58528;SDS011;44322;52.968;5.816;2023-03-01T15:13:34;18.27;;;12.68;;
58528;SDS011;44322;52.968;5.816;2023-03-01T15:16:07;17.00;;;12.48;;
58528;SDS011;44322;52.968;5.816;2023-03-01T15:18:34;17.67;;;12.90;;
58528;SDS011;44322;52.968;5.816;2023-03-01T15:21:08;18.27;;;13.43;;
58528;SDS011;44322;52.968;5.816;2023-03-01T15:23:35;16.80;;;12.25;;
58528;SDS011;44322;52.968;5.816;2023-03-01T15:26:02;18.60;;;12.68;;
58528;SDS011;44322;52.968;5.816;2023-03-01T15:28:36;18.73;;;12.77;;
58528;SDS011;44322;52.968;5.816;2023-03-01T15:31:19;16.25;;;11.82;;
58528;SDS011;44322;52.968;5.816;2023-03-01T15:36:59;16.75;;;12.27;;
58528;SDS011;44322;52.968;5.816;2023-03-01T15:39:29;16.88;;;12.23;;
58528;SDS011;44322;52.968;5.816;2023-03-01T15:42:06;17.95;;;11.93;;
58528;SDS011;44322;52.968;5.816;2023-03-01T15:44:35;17.52;;;12.23;;
58528;SDS011;44322;52.968;5.816;2023-03-01T15:47:03;19.73;;;13.13;;
58528;SDS011;44322;52.968;5.816;2023-03-01T15:49:46;16.33;;;12.00;;
58528;SDS011;44322;52.968;5.816;2023-03-01T15:52:14;16.38;;;12.30;;
58528;SDS011;44322;52.968;5.816;2023-03-01T15:54:54;16.27;;;11.35;;
58528;SDS011;44322;52.968;5.816;2023-03-01T15:57:24;15.60;;;11.30;;
58528;SDS011;44322;52.968;5.816;2023-03-01T15:59:50;17.15;;;11.85;;
58528;SDS011;44322;52.968;5.816;2023-03-01T16:02:15;17.42;;;12.00;;
58528;SDS011;44322;52.968;5.816;2023-03-01T16:04:41;15.65;;;12.07;;
58528;SDS011;44322;52.968;5.816;2023-03-01T16:07:08;19.08;;;12.68;;
58528;SDS011;44322;52.968;5.816;2023-03-01T16:09:35;17.73;;;12.80;;
58528;SDS011;44322;52.968;5.816;2023-03-01T16:12:01;19.23;;;13.43;;
58528;SDS011;44322;52.968;5.816;2023-03-01T16:14:27;19.13;;;13.05;;
58528;SDS011;44322;52.968;5.816;2023-03-01T16:16:52;19.52;;;12.95;;
58528;SDS011;44322;52.968;5.816;2023-03-01T16:19:18;17.27;;;12.38;;
58528;SDS011;44322;52.968;5.816;2023-03-01T16:21:44;18.48;;;13.25;;
58528;SDS011;44322;52.968;5.816;2023-03-01T16:24:12;17.58;;;12.48;;
58528;SDS011;44322;52.968;5.816;2023-03-01T16:26:38;19.33;;;12.90;;
58528;SDS011;44322;52.968;5.816;2023-03-01T16:29:04;19.05;;;12.38;;
58528;SDS011;44322;52.968;5.816;2023-03-01T16:31:30;18.77;;;12.75;;
58528;SDS011;44322;52.968;5.816;2023-03-01T16:33:56;18.92;;;13.32;;
58528;SDS011;44322;52.968;5.816;2023-03-01T16:36:23;19.07;;;12.80;;
58528;SDS011;44322;52.968;5.816;2023-03-01T16:38:50;17.77;;;12.25;;
58528;SDS011;44322;52.968;5.816;2023-03-01T16:41:17;16.83;;;12.25;;
58528;SDS011;44322;52.968;5.816;2023-03-01T16:43:44;20.67;;;13.77;;
58528;SDS011;44322;52.968;5.816;2023-03-01T16:46:32;18.45;;;13.02;;
58528;SDS011;44322;52.968;5.816;2023-03-01T16:48:57;19.05;;;13.35;;
58528;SDS011;44322;52.968;5.816;2023-03-01T16:51:23;20.52;;;13.85;;
58528;SDS011;44322;52.968;5.816;2023-03-01T16:53:49;19.85;;;14.93;;
58528;SDS011;44322;52.968;5.816;2023-03-01T16:56:16;18.33;;;13.63;;
58528;SDS011;44322;52.968;5.816;2023-03-01T16:58:42;18.85;;;13.07;;
58528;SDS011;44322;52.968;5.816;2023-03-01T17:01:09;18.92;;;13.20;;
58528;SDS011;44322;52.968;5.816;2023-03-01T17:03:37;20.63;;;13.32;;
58528;SDS011;44322;52.968;5.816;2023-03-01T17:06:04;18.83;;;13.38;;
58528;SDS011;44322;52.968;5.816;2023-03-01T17:08:33;21.02;;;14.65;;
58528;SDS011;44322;52.968;5.816;2023-03-01T17:11:09;20.42;;;14.55;;
58528;SDS011;44322;52.968;5.816;2023-03-01T17:13:37;23.55;;;15.48;;
58528;SDS011;44322;52.968;5.816;2023-03-01T17:16:04;21.00;;;14.93;;
58528;SDS011;44322;52.968;5.816;2023-03-01T17:18:31;24.33;;;14.63;;
58528;SDS011;44322;52.968;5.816;2023-03-01T17:20:57;21.25;;;14.40;;
58528;SDS011;44322;52.968;5.816;2023-03-01T17:23:23;24.05;;;14.90;;
58528;SDS011;44322;52.968;5.816;2023-03-01T17:25:49;23.25;;;15.07;;
58528;SDS011;44322;52.968;5.816;2023-03-01T17:28:16;23.33;;;15.97;;
58528;SDS011;44322;52.968;5.816;2023-03-01T17:30:43;23.00;;;15.52;;
58528;SDS011;44322;52.968;5.816;2023-03-01T17:33:10;24.63;;;15.80;;
58528;SDS011;44322;52.968;5.816;2023-03-01T17:35:36;25.27;;;16.55;;
58528;SDS011;44322;52.968;5.816;2023-03-01T17:38:03;24.90;;;16.20;;
58528;SDS011;44322;52.968;5.816;2023-03-01T17:40:29;23.02;;;15.45;;
58528;SDS011;44322;52.968;5.816;2023-03-01T17:42:56;24.23;;;15.32;;
58528;SDS011;44322;52.968;5.816;2023-03-01T17:45:22;21.05;;;14.48;;
58528;SDS011;44322;52.968;5.816;2023-03-01T17:47:48;21.95;;;14.93;;
58528;SDS011;44322;52.968;5.816;2023-03-01T17:50:13;21.52;;;14.52;;
58528;SDS011;44322;52.968;5.816;2023-03-01T17:52:40;22.13;;;14.95;;
58528;SDS011;44322;52.968;5.816;2023-03-01T17:55:06;22.00;;;14.38;;
58528;SDS011;44322;52.968;5.816;2023-03-01T17:57:32;22.35;;;14.23;;
58528;SDS011;44322;52.968;5.816;2023-03-01T17:59:57;20.08;;;14.43;;
58528;SDS011;44322;52.968;5.816;2023-03-01T18:02:23;20.27;;;13.77;;
58528;SDS011;44322;52.968;5.816;2023-03-01T18:04:50;23.03;;;14.83;;
58528;SDS011;44322;52.968;5.816;2023-03-01T18:07:17;21.42;;;14.93;;
58528;SDS011;44322;52.968;5.816;2023-03-01T18:09:43;22.80;;;14.45;;
58528;SDS011;44322;52.968;5.816;2023-03-01T18:12:09;24.08;;;15.68;;
58528;SDS011;44322;52.968;5.816;2023-03-01T18:14:35;23.35;;;14.90;;
58528;SDS011;44322;52.968;5.816;2023-03-01T18:17:01;25.15;;;16.30;;
58528;SDS011;44322;52.968;5.816;2023-03-01T18:19:30;22.48;;;15.05;;
58528;SDS011;44322;52.968;5.816;2023-03-01T18:21:56;23.67;;;15.57;;
58528;SDS011;44322;52.968;5.816;2023-03-01T18:24:22;24.40;;;15.85;;
58528;SDS011;44322;52.968;5.816;2023-03-01T18:26:47;24.52;;;16.80;;
58528;SDS011;44322;52.968;5.816;2023-03-01T18:29:13;27.35;;;18.23;;
58528;SDS011;44322;52.968;5.816;2023-03-01T18:31:39;27.27;;;18.05;;
58528;SDS011;44322;52.968;5.816;2023-03-01T18:34:04;26.35;;;18.92;;
58528;SDS011;44322;52.968;5.816;2023-03-01T18:36:31;26.33;;;18.10;;
58528;SDS011;44322;52.968;5.816;2023-03-01T18:38:59;30.05;;;19.23;;
58528;SDS011;44322;52.968;5.816;2023-03-01T18:41:26;27.67;;;17.52;;
58528;SDS011;44322;52.968;5.816;2023-03-01T18:43:52;27.65;;;17.45;;
58528;SDS011;44322;52.968;5.816;2023-03-01T18:46:20;27.88;;;18.25;;
58528;SDS011;44322;52.968;5.816;2023-03-01T18:48:46;29.30;;;17.85;;
58528;SDS011;44322;52.968;5.816;2023-03-01T18:51:19;26.30;;;16.42;;
58528;SDS011;44322;52.968;5.816;2023-03-01T18:53:46;24.33;;;16.15;;
58528;SDS011;44322;52.968;5.816;2023-03-01T18:56:12;26.77;;;16.90;;
58528;SDS011;44322;52.968;5.816;2023-03-01T18:58:37;24.25;;;16.80;;
58528;SDS011;44322;52.968;5.816;2023-03-01T19:01:04;23.48;;;15.75;;
58528;SDS011;44322;52.968;5.816;2023-03-01T19:03:35;23.95;;;15.40;;
58528;SDS011;44322;52.968;5.816;2023-03-01T19:06:01;24.48;;;15.38;;
58528;SDS011;44322;52.968;5.816;2023-03-01T19:08:29;23.63;;;16.15;;
58528;SDS011;44322;52.968;5.816;2023-03-01T19:10:58;24.23;;;15.93;;
58528;SDS011;44322;52.968;5.816;2023-03-01T19:13:33;28.17;;;15.95;;
58528;SDS011;44322;52.968;5.816;2023-03-01T19:16:03;24.80;;;15.07;;
58528;SDS011;44322;52.968;5.816;2023-03-01T19:18:31;23.67;;;15.60;;
58528;SDS011;44322;52.968;5.816;2023-03-01T19:21:00;22.42;;;14.68;;
58528;SDS011;44322;52.968;5.816;2023-03-01T19:23:28;23.17;;;14.70;;
58528;SDS011;44322;52.968;5.816;2023-03-01T19:25:58;23.98;;;15.15;;
58528;SDS011;44322;52.968;5.816;2023-03-01T19:28:24;22.48;;;15.50;;
58528;SDS011;44322;52.968;5.816;2023-03-01T19:30:50;22.60;;;15.85;;
58528;SDS011;44322;52.968;5.816;2023-03-01T19:33:15;23.95;;;16.60;;
58528;SDS011;44322;52.968;5.816;2023-03-01T19:35:41;21.45;;;15.00;;